Aviation Digital Data Service (ADDS)

Output produced by METARs form (1121 UTC 24 May 2022)
found at http://www.aviationweather.gov/metar/data/
 
METAR text: LFMH 241100Z AUTO 02008KT 330V060 9999 BKN054 BKN086 19/06 Q1011
Conditions at: LFMH (ST ETIENNE/BOUTH, FR) observed 1100 UTC 24 May 2022
Temperature: 19.0°C (66°F)
Dewpoint: 6.0°C (43°F) [RH = 43%]
Pressure (altimeter): 29.85 inches Hg (1011.0 mb)
Winds: from the NNE (20 degrees) at 9 MPH (8 knots; 4.1 m/s)
Visibility: 6 or more miles (10+ km)
Ceiling: 5400 feet AGL
Clouds: broken clouds at 5400 feet AGL
broken clouds at 8600 feet AGL
Weather: no significant weather observed at this time